Time;durP1;ratioP1;P1;durP2;ratioP2;P2;SDS_P1;SDS_P2;PMS_P1;PMS_P2;Temp;Humidity;BMP_temperature;BMP_pressure;BME280_temperature;BME280_humidity;BME280_pressure;Samples;Min_cycle;Max_cycle;Signal;HPM_P1;HPM_P2
2022/05/06 00:01:12;;;;;;;8.43;4.67;;;14.10;1.00;;;;;;5118250;28;20897;-59
2022/05/06 00:03:40;;;;;;;9.80;6.40;;;14.20;1.00;;;;;;5099780;28;20476;-59
2022/05/06 00:06:07;;;;;;;8.03;4.63;;;14.20;1.00;;;;;;5135047;28;20452;-60
2022/05/06 00:08:35;;;;;;;9.57;5.70;;;14.30;1.00;;;;;;5138941;27;20551;-59
2022/05/06 00:11:02;;;;;;;10.40;5.80;;;14.20;1.00;;;;;;5134706;27;20460;-59
2022/05/06 00:13:29;;;;;;;6.50;4.90;;;14.20;1.00;;;;;;5138860;27;20451;-59
2022/05/06 00:15:59;;;;;;;6.50;3.73;;;14.10;1.00;;;;;;5067569;27;20644;-57
2022/05/06 00:18:26;;;;;;;8.43;4.53;;;14.00;1.00;;;;;;4869451;27;20452;-58
2022/05/06 00:20:55;;;;;;;6.03;3.53;;;14.00;1.00;;;;;;5134217;27;20480;-58
2022/05/06 00:23:22;;;;;;;6.80;5.03;;;14.10;1.00;;;;;;5134863;27;20465;-58
2022/05/06 00:25:49;;;;;;;4.73;4.00;;;14.20;1.00;;;;;;5137701;27;20447;-59
2022/05/06 00:28:16;;;;;;;6.20;4.40;;;14.10;1.00;;;;;;5112180;27;20567;-61
2022/05/06 00:30:44;;;;;;;6.90;5.40;;;14.10;1.00;;;;;;5136193;27;20459;-61
2022/05/06 00:33:13;;;;;;;6.47;4.10;;;14.10;1.00;;;;;;5095741;27;20876;-59
2022/05/06 00:35:41;;;;;;;6.80;3.83;;;14.10;1.00;;;;;;5139468;27;20841;-59
2022/05/06 00:38:10;;;;;;;8.37;4.57;;;14.20;1.00;;;;;;5097372;27;20444;-59
2022/05/06 00:40:37;;;;;;;4.77;3.03;;;14.20;1.00;;;;;;5135690;27;20985;-59
2022/05/06 00:43:04;;;;;;;8.10;4.23;;;14.20;1.00;;;;;;5139043;27;20501;-59
2022/05/06 00:45:40;;;;;;;8.30;5.33;;;14.20;1.00;;;;;;5138647;27;20815;-59
2022/05/06 00:48:08;;;;;;;6.47;3.70;;;14.30;1.00;;;;;;5138559;27;20478;-60
2022/05/06 00:50:35;;;;;;;11.47;5.43;;;14.20;1.00;;;;;;5103800;27;20467;-59
2022/05/06 00:53:06;;;;;;;6.40;4.90;;;14.20;1.00;;;;;;5135860;27;20888;-59
2022/05/06 00:55:35;;;;;;;7.43;5.70;;;14.10;1.00;;;;;;5068349;27;20875;-57
2022/05/06 00:58:03;;;;;;;10.73;6.30;;;14.10;1.00;;;;;;5136183;27;20939;-58
2022/05/06 01:00:30;;;;;;;12.63;7.97;;;14.00;1.00;;;;;;5106614;27;21060;-57
2022/05/06 01:02:58;;;;;;;9.73;5.77;;;14.00;1.00;;;;;;5137861;27;20467;-58
2022/05/06 01:05:26;;;;;;;8.67;5.10;;;13.90;1.00;;;;;;5137899;27;20802;-58
2022/05/06 01:07:55;;;;;;;6.07;3.60;;;13.80;1.00;;;;;;5129725;27;20547;-57
2022/05/06 01:10:23;;;;;;;9.83;5.53;;;13.70;1.00;;;;;;5117104;28;20891;-58
2022/05/06 01:12:51;;;;;;;10.00;5.97;;;13.70;1.00;;;;;;5117742;28;20448;-58
2022/05/06 01:15:20;;;;;;;8.20;4.30;;;13.70;1.00;;;;;;5117246;28;20887;-58
2022/05/06 01:17:48;;;;;;;9.87;4.80;;;13.60;1.00;;;;;;5120490;27;20543;-56
2022/05/06 01:20:16;;;;;;;9.00;6.00;;;13.60;1.00;;;;;;5114711;28;20441;-58
2022/05/06 01:22:47;;;;;;;7.20;4.90;;;13.70;1.00;;;;;;5045559;27;20569;-58
2022/05/06 01:25:15;;;;;;;9.83;4.13;;;13.70;1.00;;;;;;5116581;28;20448;-58
2022/05/06 01:27:47;;;;;;;8.60;5.20;;;13.80;1.00;;;;;;5119801;27;20484;-58
2022/05/06 01:30:24;;;;;;;13.80;6.57;;;13.90;1.00;;;;;;5118016;28;20491;-57
2022/05/06 01:32:51;;;;;;;10.67;5.80;;;13.80;1.00;;;;;;5115884;28;20531;-58
2022/05/06 01:35:22;;;;;;;9.00;5.80;;;13.90;1.00;;;;;;5112030;27;20576;-58
2022/05/06 01:37:53;;;;;;;10.27;5.37;;;13.70;1.00;;;;;;5118084;28;20822;-58
2022/05/06 01:40:21;;;;;;;6.37;4.83;;;13.70;1.00;;;;;;5118307;28;20751;-58
2022/05/06 01:42:51;;;;;;;6.70;4.60;;;13.60;1.00;;;;;;5117445;28;20445;-58
2022/05/06 01:45:21;;;;;;;6.00;4.60;;;13.60;1.00;;;;;;5085330;27;20452;-59
2022/05/06 01:47:50;;;;;;;5.77;4.50;;;13.60;1.00;;;;;;5088910;28;20484;-60
2022/05/06 01:50:18;;;;;;;12.37;5.57;;;13.70;1.00;;;;;;5117763;28;20444;-60
2022/05/06 01:52:49;;;;;;;11.13;6.00;;;13.70;1.00;;;;;;5113608;28;20476;-61
2022/05/06 01:55:17;;;;;;;10.30;6.73;;;13.80;1.00;;;;;;5121199;27;20472;-60
2022/05/06 01:57:44;;;;;;;7.77;5.70;;;13.90;1.00;;;;;;5117592;28;20502;-60
2022/05/06 02:00:13;;;;;;;9.33;4.53;;;13.90;1.00;;;;;;5117640;28;20929;-60
2022/05/06 02:02:40;;;;;;;7.93;3.97;;;13.80;1.00;;;;;;5125671;27;20483;-60
2022/05/06 02:05:19;;;;;;;10.80;6.40;;;13.70;1.00;;;;;;5122409;27;20447;-60
2022/05/06 02:07:49;;;;;;;11.40;6.40;;;13.70;1.00;;;;;;5138006;27;20813;-60
2022/05/06 02:10:18;;;;;;;6.70;4.60;;;13.50;1.00;;;;;;5138063;27;20454;-59
2022/05/06 02:12:45;;;;;;;8.63;5.57;;;13.50;1.00;;;;;;5136569;27;20459;-60
2022/05/06 02:15:14;;;;;;;6.50;4.67;;;13.60;1.00;;;;;;5138186;27;20542;-61
2022/05/06 02:17:41;;;;;;;9.77;6.90;;;13.60;1.00;;;;;;5137132;27;20499;-60
2022/05/06 02:20:10;;;;;;;10.37;4.90;;;13.60;1.00;;;;;;5135346;27;20541;-60
2022/05/06 02:22:42;;;;;;;7.30;4.97;;;13.60;1.00;;;;;;5132292;27;20452;-59
2022/05/06 02:25:10;;;;;;;7.90;4.30;;;13.50;1.00;;;;;;5136004;27;20450;-59
2022/05/06 02:27:39;;;;;;;8.83;5.40;;;13.50;1.00;;;;;;5136240;27;20473;-59
2022/05/06 02:35:37;;;;;;;9.20;4.83;;;13.60;1.00;;;;;;5137266;27;20423;-60
2022/05/06 02:38:05;;;;;;;6.37;4.87;;;13.50;1.00;;;;;;5136760;27;20443;-59
2022/05/06 02:40:34;;;;;;;9.47;4.10;;;13.60;1.00;;;;;;5133913;27;20465;-59
2022/05/06 02:43:03;;;;;;;9.50;4.43;;;13.60;1.00;;;;;;5136784;27;20475;-59
2022/05/06 02:45:30;;;;;;;7.80;4.77;;;13.50;1.00;;;;;;5137254;27;20814;-58
2022/05/06 02:47:57;;;;;;;11.63;5.60;;;13.60;1.00;;;;;;5135030;27;20509;-59
2022/05/06 02:50:25;;;;;;;6.20;4.60;;;13.50;1.00;;;;;;5137340;27;20545;-59
2022/05/06 02:52:52;;;;;;;8.50;4.63;;;13.50;1.00;;;;;;5137823;27;20444;-59
2022/05/06 02:55:19;;;;;;;5.97;5.37;;;13.30;1.00;;;;;;5133624;27;20447;-59
2022/05/06 02:57:46;;;;;;;8.67;5.00;;;13.40;1.00;;;;;;5133488;27;20463;-59
2022/05/06 03:00:15;;;;;;;8.47;4.07;;;13.40;1.00;;;;;;5115214;28;20440;-59
2022/05/06 03:02:42;;;;;;;10.40;5.77;;;13.50;1.00;;;;;;5114527;28;20827;-59
2022/05/06 03:05:10;;;;;;;5.00;4.30;;;13.40;1.00;;;;;;5115037;28;20452;-59
2022/05/06 03:07:38;;;;;;;6.70;3.93;;;13.40;1.00;;;;;;5118949;28;20743;-59
2022/05/06 03:10:05;;;;;;;6.90;4.93;;;13.40;1.00;;;;;;5116933;28;20484;-58
2022/05/06 03:12:34;;;;;;;6.93;4.00;;;13.40;1.00;;;;;;5117304;28;20445;-59
2022/05/06 03:15:04;;;;;;;7.53;3.70;;;13.50;1.00;;;;;;5116913;28;20449;-58
2022/05/06 03:17:33;;;;;;;8.80;4.90;;;13.60;1.00;;;;;;5131702;28;20498;-59
2022/05/06 03:20:00;;;;;;;8.07;4.77;;;13.70;1.00;;;;;;5136558;28;20448;-59
2022/05/06 03:22:28;;;;;;;7.77;5.70;;;13.70;1.00;;;;;;5073876;28;20888;-59
2022/05/06 03:24:55;;;;;;;8.10;4.57;;;13.50;1.00;;;;;;5133324;28;20518;-59
2022/05/06 03:30:08;;;;;;;7.87;3.97;;;13.50;1.00;;;;;;5115780;28;20472;-58
2022/05/06 03:32:36;;;;;;;6.80;3.40;;;13.50;1.00;;;;;;5115159;28;20530;-58
2022/05/06 03:35:04;;;;;;;9.40;4.00;;;13.50;1.00;;;;;;5117686;28;20928;-59
2022/05/06 03:37:33;;;;;;;3.70;2.67;;;13.50;1.00;;;;;;5109972;28;20452;-60
2022/05/06 03:40:00;;;;;;;6.50;3.70;;;13.50;1.00;;;;;;5115770;28;20445;-60
2022/05/06 03:42:27;;;;;;;6.90;4.40;;;13.50;1.00;;;;;;5102395;28;20455;-60
2022/05/06 03:44:54;;;;;;;7.80;4.00;;;13.60;1.00;;;;;;5121549;27;20462;-60
2022/05/06 03:47:22;;;;;;;7.00;3.87;;;13.70;1.00;;;;;;5119749;28;20448;-59
2022/05/06 03:51:20;;;;;;;4.70;3.97;;;13.60;1.00;;;;;;5119942;28;20487;-60
2022/05/06 03:52:39;;;;;;;4.63;3.20;;;13.70;1.00;;;;;;5123227;27;20755;-58
2022/05/06 03:55:07;;;;;;;4.53;3.17;;;13.70;1.00;;;;;;5119959;28;20675;-60
2022/05/06 03:57:34;;;;;;;7.83;4.87;;;13.70;1.00;;;;;;5119927;28;20448;-60
2022/05/06 04:00:01;;;;;;;4.27;3.40;;;13.70;1.00;;;;;;5119702;28;20440;-59
2022/05/06 04:02:28;;;;;;;4.57;2.63;;;13.60;1.00;;;;;;5112229;27;20545;-60
2022/05/06 04:04:56;;;;;;;4.43;3.40;;;13.60;1.00;;;;;;5119683;28;20448;-59
2022/05/06 04:07:23;;;;;;;4.73;2.63;;;13.70;1.00;;;;;;5115600;28;20498;-60
2022/05/06 04:09:50;;;;;;;3.97;2.60;;;13.60;1.00;;;;;;5120088;28;20513;-59
2022/05/06 04:12:17;;;;;;;6.00;3.20;;;13.60;1.00;;;;;;5119323;27;20473;-59
2022/05/06 04:14:44;;;;;;;4.10;2.50;;;13.50;1.00;;;;;;5119385;27;20542;-60
2022/05/06 04:17:11;;;;;;;6.00;3.37;;;13.50;1.00;;;;;;5118425;28;20521;-59
2022/05/06 04:23:28;;;;;;;4.70;2.90;;;13.50;1.00;;;;;;5118749;27;20513;-59
2022/05/06 04:25:16;;;;;;;3.97;3.50;;;13.50;1.00;;;;;;5092190;28;20743;-59
2022/05/06 04:27:44;;;;;;;6.97;4.20;;;13.40;1.00;;;;;;5118990;28;20868;-59
2022/05/06 04:30:12;;;;;;;4.50;3.53;;;13.50;1.00;;;;;;5121813;27;20499;-59
2022/05/06 04:32:39;;;;;;;5.27;4.13;;;13.40;1.00;;;;;;5116425;28;21161;-59
2022/05/06 04:35:08;;;;;;;6.60;3.63;;;13.40;7.70;;;;;;5064215;28;20448;-59
2022/05/06 04:37:36;;;;;;;5.70;3.47;;;13.40;5.50;;;;;;5118448;27;20445;-59
2022/05/06 04:40:05;;;;;;;6.53;3.60;;;13.30;5.70;;;;;;5136998;27;20452;-60
2022/05/06 04:42:32;;;;;;;6.27;3.97;;;13.40;14.90;;;;;;5125350;27;20443;-58
2022/05/06 04:44:59;;;;;;;3.40;3.07;;;13.50;13.70;;;;;;5137992;27;20513;-58
2022/05/06 04:47:26;;;;;;;4.47;2.83;;;13.40;11.80;;;;;;5133973;27;20689;-58
2022/05/06 04:49:53;;;;;;;6.60;3.47;;;13.40;11.40;;;;;;4992582;28;20502;-58
2022/05/06 04:52:20;;;;;;;4.17;2.63;;;13.30;11.60;;;;;;5116581;28;20468;-58
2022/05/06 04:54:49;;;;;;;4.67;3.10;;;13.30;29.10;;;;;;5116286;28;20448;-59
2022/05/06 04:57:16;;;;;;;5.67;2.87;;;13.30;22.30;;;;;;5118382;27;21237;-58
2022/05/06 04:59:47;;;;;;;6.47;3.60;;;13.30;17.30;;;;;;4994243;28;20538;-59
2022/05/06 05:02:15;;;;;;;5.10;3.27;;;13.30;24.00;;;;;;5122573;27;21084;-59
2022/05/06 05:04:43;;;;;;;4.97;3.30;;;13.30;32.60;;;;;;5137288;27;20509;-59
2022/05/06 05:07:09;;;;;;;3.83;2.23;;;13.30;39.80;;;;;;5135834;27;20893;-59
2022/05/06 05:09:36;;;;;;;5.17;2.63;;;13.30;38.10;;;;;;5138100;27;20488;-58
2022/05/06 05:12:07;;;;;;;4.20;2.93;;;13.40;36.30;;;;;;5138975;27;20448;-58
2022/05/06 05:14:36;;;;;;;6.83;3.80;;;13.50;19.60;;;;;;5129215;27;20863;-59
2022/05/06 05:17:03;;;;;;;7.00;2.80;;;13.50;12.50;;;;;;5129890;27;20574;-59
2022/05/06 05:19:30;;;;;;;3.60;2.63;;;13.30;15.60;;;;;;5122336;27;20437;-59
2022/05/06 05:21:57;;;;;;;5.53;2.47;;;13.40;22.90;;;;;;5127193;27;20452;-59
2022/05/06 05:24:24;;;;;;;3.60;2.70;;;13.40;20.40;;;;;;5134125;27;20464;-58
2022/05/06 05:26:51;;;;;;;6.40;3.83;;;13.40;17.50;;;;;;5120403;27;20452;-59
2022/05/06 05:29:19;;;;;;;7.83;2.60;;;13.20;22.60;;;;;;5132897;27;20529;-59
2022/05/06 05:31:47;;;;;;;4.03;2.43;;;13.20;31.30;;;;;;5123595;27;20452;-59
2022/05/06 05:34:13;;;;;;;4.70;2.20;;;13.20;45.00;;;;;;5133800;27;20460;-59
2022/05/06 05:36:41;;;;;;;3.63;2.90;;;13.20;44.90;;;;;;5136325;27;20456;-58
2022/05/06 05:39:08;;;;;;;4.70;2.37;;;13.20;65.30;;;;;;5094405;27;20854;-60
2022/05/06 05:41:35;;;;;;;8.10;2.37;;;13.20;49.80;;;;;;5129686;27;20444;-58
2022/05/06 05:49:32;;;;;;;5.37;2.70;;;13.00;93.50;;;;;;5127950;27;20463;-59
2022/05/06 05:55:34;;;;;;;4.47;3.40;;;13.00;61.10;;;;;;5083068;27;20501;-60
2022/05/06 05:58:02;;;;;;;5.37;3.50;;;12.90;99.90;;;;;;5093774;28;20457;-59
2022/05/06 06:00:32;;;;;;;3.97;2.70;;;12.90;95.30;;;;;;5091684;28;20719;-59
2022/05/06 06:03:00;;;;;;;8.00;3.67;;;13.00;94.80;;;;;;5112129;28;20451;-59
2022/05/06 06:05:27;;;;;;;9.37;3.10;;;13.00;85.40;;;;;;5110035;28;20551;-59
2022/05/06 06:07:54;;;;;;;5.70;2.60;;;13.10;87.90;;;;;;5102970;28;20923;-59
2022/05/06 06:10:20;;;;;;;4.43;2.93;;;13.30;79.40;;;;;;5053300;28;20482;-59
2022/05/06 06:12:48;;;;;;;4.73;2.53;;;13.30;53.20;;;;;;5103270;28;20447;-59
2022/05/06 06:15:15;;;;;;;4.80;3.47;;;13.40;38.10;;;;;;5105084;28;20473;-59
2022/05/06 06:17:42;;;;;;;5.30;3.60;;;13.40;23.50;;;;;;5092770;28;20896;-57
2022/05/06 06:20:12;;;;;;;3.83;3.13;;;13.40;15.40;;;;;;5111313;27;20460;-59
2022/05/06 06:22:38;;;;;;;6.40;3.10;;;13.40;24.30;;;;;;5114502;27;20498;-59
2022/05/06 06:25:09;;;;;;;4.60;2.90;;;13.40;19.70;;;;;;5105312;28;20475;-60
2022/05/06 06:27:36;;;;;;;4.80;2.53;;;13.30;34.20;;;;;;5102639;28;20437;-58
2022/05/06 06:30:03;;;;;;;4.00;3.23;;;13.30;38.50;;;;;;5108641;28;20481;-58
2022/05/06 06:32:30;;;;;;;6.03;3.10;;;13.40;29.40;;;;;;5094294;28;20444;-59
2022/05/06 06:38:20;;;;;;;4.47;2.93;;;13.60;12.30;;;;;;5097088;28;20892;-58
2022/05/06 06:40:47;;;;;;;5.07;3.10;;;13.60;12.10;;;;;;5096046;28;20440;-58
2022/05/06 06:43:14;;;;;;;4.20;3.10;;;13.60;15.70;;;;;;5104234;28;20450;-58
2022/05/06 06:45:41;;;;;;;4.57;3.00;;;13.60;19.80;;;;;;5102449;28;20877;-58
2022/05/06 06:48:08;;;;;;;4.67;3.00;;;13.70;4.50;;;;;;5094396;28;20438;-58
2022/05/06 06:50:35;;;;;;;5.40;3.53;;;13.80;1.00;;;;;;5105946;28;21129;-57
2022/05/06 06:53:02;;;;;;;6.40;3.47;;;13.80;1.00;;;;;;5096530;28;20441;-57
2022/05/06 06:55:30;;;;;;;8.40;4.20;;;13.80;1.00;;;;;;5110321;28;20483;-58
2022/05/06 06:57:57;;;;;;;4.33;2.70;;;13.70;1.00;;;;;;5125259;27;20439;-57
2022/05/06 07:00:24;;;;;;;4.77;2.63;;;13.60;1.00;;;;;;5119931;27;20538;-58
2022/05/06 07:02:51;;;;;;;3.43;1.83;;;13.60;1.00;;;;;;5118491;28;20428;-59
2022/05/06 07:05:18;;;;;;;4.60;3.33;;;13.70;1.00;;;;;;5126704;28;20449;-57
2022/05/06 07:13:17;;;;;;;4.10;3.70;;;14.00;1.00;;;;;;5100287;28;20741;-59
2022/05/06 07:15:44;;;;;;;2.60;2.30;;;14.10;1.00;;;;;;5121208;28;20451;-58
2022/05/06 07:18:10;;;;;;;4.07;2.63;;;14.10;1.00;;;;;;5129358;27;20447;-59
2022/05/06 07:20:37;;;;;;;3.60;2.40;;;14.10;1.00;;;;;;5117913;27;20433;-59
2022/05/06 07:23:04;;;;;;;3.77;2.73;;;14.10;1.00;;;;;;4989768;27;20839;-59
2022/05/06 07:25:33;;;;;;;4.73;2.83;;;14.20;1.00;;;;;;5125335;27;20452;-59
2022/05/06 07:31:21;;;;;;;3.70;2.53;;;14.20;1.00;;;;;;5116639;27;20458;-58
2022/05/06 07:33:49;;;;;;;2.70;1.80;;;14.20;1.00;;;;;;5127476;27;20444;-58
2022/05/06 07:36:16;;;;;;;3.20;1.53;;;14.10;1.00;;;;;;5133505;27;20464;-58
2022/05/06 07:38:43;;;;;;;9.67;4.13;;;14.10;1.00;;;;;;5133691;27;20444;-58
2022/05/06 07:41:11;;;;;;;4.23;2.53;;;14.20;1.00;;;;;;5029556;27;20466;-58
2022/05/06 07:43:38;;;;;;;5.60;1.90;;;14.00;1.00;;;;;;5086710;27;20534;-57
2022/05/06 07:46:05;;;;;;;3.13;1.87;;;14.00;1.00;;;;;;5123968;27;20538;-59
2022/05/06 07:48:31;;;;;;;2.30;1.73;;;14.10;1.00;;;;;;5122185;27;20448;-58
2022/05/06 07:50:58;;;;;;;5.37;2.50;;;14.10;1.00;;;;;;5128027;27;20489;-57
2022/05/06 07:53:25;;;;;;;2.17;1.20;;;14.30;1.00;;;;;;5125466;27;20443;-57
2022/05/06 07:55:52;;;;;;;2.73;1.70;;;14.40;1.00;;;;;;5123090;27;20475;-57
2022/05/06 07:58:20;;;;;;;2.33;1.40;;;14.50;90.80;;;;;;5125787;27;20451;-58
2022/05/06 08:00:47;;;;;;;3.50;1.60;;;14.50;99.90;;;;;;5127460;27;20439;-57
2022/05/06 08:05:59;;;;;;;2.53;2.10;;;14.60;99.90;;;;;;5114251;27;20439;-60
2022/05/06 08:08:27;;;;;;;3.03;1.53;;;14.70;1.00;;;;;;5128404;27;20458;-59
2022/05/06 08:10:54;;;;;;;5.50;1.30;;;14.60;1.00;;;;;;5125895;27;21118;-59
2022/05/06 08:13:23;;;;;;;3.77;1.40;;;14.70;1.00;;;;;;5135029;27;20819;-58
2022/05/06 08:15:51;;;;;;;2.63;1.60;;;14.70;1.00;;;;;;5128282;27;20444;-58
2022/05/06 08:18:18;;;;;;;1.60;1.10;;;14.80;1.00;;;;;;5111494;27;20448;-58
2022/05/06 08:20:46;;;;;;;2.70;1.40;;;15.00;99.90;;;;;;5132572;27;20435;-58
2022/05/06 08:23:13;;;;;;;2.30;1.47;;;15.00;1.00;;;;;;5073007;27;20443;-58
2022/05/06 08:25:42;;;;;;;2.97;1.63;;;15.20;26.60;;;;;;5101789;27;20465;-57
2022/05/06 08:28:09;;;;;;;3.40;1.27;;;15.20;99.90;;;;;;5086973;27;21379;-59
2022/05/06 08:30:37;;;;;;;2.33;1.50;;;15.00;1.00;;;;;;5124678;27;20476;-58
2022/05/06 08:33:04;;;;;;;3.10;1.77;;;15.10;99.90;;;;;;5126952;27;20867;-56
2022/05/06 08:35:31;;;;;;;2.10;1.20;;;14.90;1.00;;;;;;5123343;27;20654;-59
2022/05/06 08:38:10;;;;;;;2.70;1.20;;;14.70;99.90;;;;;;5117575;27;20859;-58
2022/05/06 08:40:37;;;;;;;2.73;1.30;;;14.60;99.90;;;;;;5131624;27;20448;-59
2022/05/06 08:43:05;;;;;;;2.37;1.83;;;14.70;99.90;;;;;;5119368;27;20444;-59
2022/05/06 08:51:05;;;;;;;1.33;1.13;;;14.90;99.90;;;;;;5130275;27;20482;-58
2022/05/06 08:56:56;;;;;;;2.63;1.30;;;14.80;1.00;;;;;;5110502;27;20435;-57
2022/05/06 08:59:22;;;;;;;3.80;1.90;;;14.90;32.30;;;;;;5115925;28;20926;-58
2022/05/06 09:01:49;;;;;;;2.87;1.30;;;15.00;1.00;;;;;;5066212;28;20745;-61
2022/05/06 09:04:17;;;;;;;1.80;1.30;;;15.10;99.90;;;;;;4952713;27;20450;-61
2022/05/06 09:06:44;;;;;;;2.70;1.20;;;15.20;99.90;;;;;;5117128;28;20531;-53
2022/05/06 09:09:17;;;;;;;1.90;1.27;;;15.20;99.90;;;;;;5105021;27;20531;-52
2022/05/06 09:17:19;;;;;;;1.37;1.20;;;15.80;99.90;;;;;;5134034;27;20942;-53
2022/05/06 09:19:48;;;;;;;4.30;1.60;;;15.70;23.10;;;;;;5134531;27;20451;-51
2022/05/06 09:22:16;;;;;;;2.27;1.20;;;15.80;1.00;;;;;;5124449;27;20455;-50
2022/05/06 09:24:44;;;;;;;3.00;1.30;;;15.80;95.70;;;;;;5114154;28;20459;-58
2022/05/06 09:27:12;;;;;;;1.80;1.40;;;15.50;99.90;;;;;;5125007;27;20458;-53
2022/05/06 09:29:41;;;;;;;2.67;1.10;;;15.20;1.00;;;;;;5112774;27;20447;-50
2022/05/06 09:32:26;;;;;;;1.50;1.20;;;15.20;1.00;;;;;;5108554;27;20460;-51
2022/05/06 09:34:55;;;;;;;2.80;1.60;;;15.30;1.00;;;;;;5122287;27;20607;-54
2022/05/06 09:37:33;;;;;;;2.73;1.37;;;15.40;99.90;;;;;;5135058;27;20454;-53
2022/05/06 09:40:08;;;;;;;2.70;1.10;;;15.30;99.90;;;;;;5120182;27;20444;-55
2022/05/06 09:42:37;;;;;;;3.50;1.20;;;15.20;1.00;;;;;;5123504;27;20454;-53
2022/05/06 09:45:04;;;;;;;1.63;1.17;;;15.40;99.90;;;;;;5121706;27;20502;-52
2022/05/06 09:47:33;;;;;;;1.60;1.20;;;15.70;99.90;;;;;;5118639;27;20448;-55
2022/05/06 09:50:02;;;;;;;1.23;0.90;;;15.90;9.60;;;;;;5114607;27;20795;-52
2022/05/06 09:52:30;;;;;;;2.77;1.30;;;16.30;1.00;;;;;;5124144;27;20444;-53
2022/05/06 09:54:57;;;;;;;1.80;1.13;;;16.60;1.00;;;;;;5117754;27;20480;-54
2022/05/06 09:57:24;;;;;;;4.13;1.50;;;16.80;99.90;;;;;;5128562;27;20907;-51
2022/05/06 09:59:51;;;;;;;3.90;1.87;;;16.90;99.90;;;;;;5115552;27;20448;-57
2022/05/06 10:02:18;;;;;;;3.15;1.90;;;16.80;99.90;;;;;;5126550;27;20445;-52
2022/05/06 10:04:47;;;;;;;1.97;1.20;;;16.90;99.90;;;;;;5134114;27;20193;-53
2022/05/06 10:07:17;;;;;;;1.80;1.20;;;17.00;99.90;;;;;;5120798;27;20772;-47
2022/05/06 10:09:57;;;;;;;2.57;1.10;;;17.10;99.90;;;;;;5115494;27;20460;-50
2022/05/06 10:12:27;;;;;;;2.77;1.10;;;17.00;99.90;;;;;;5127651;27;20444;-52
2022/05/06 10:14:55;;;;;;;1.50;1.00;;;17.00;99.90;;;;;;5116990;27;20908;-50
2022/05/06 10:17:50;;;;;;;1.30;1.00;;;17.10;99.90;;;;;;5133335;27;20459;-51
2022/05/06 10:20:49;;;;;;;2.70;1.13;;;17.40;80.20;;;;;;5118031;27;20491;-53
2022/05/06 10:23:18;;;;;;;1.63;1.03;;;17.70;4.40;;;;;;5125657;27;20462;-49
2022/05/06 10:25:54;;;;;;;2.63;1.10;;;17.80;1.00;;;;;;5131060;27;20835;-52
2022/05/06 10:34:29;;;;;;;3.50;1.30;;;18.20;1.00;;;;;;5121685;27;20503;-51
2022/05/06 10:36:58;;;;;;;1.60;1.17;;;18.50;1.00;;;;;;5121068;27;20555;-50
2022/05/06 10:39:27;;;;;;;2.83;1.10;;;18.60;1.00;;;;;;5128166;27;20987;-54
2022/05/06 10:42:06;;;;;;;3.17;1.03;;;18.50;1.00;;;;;;5124875;27;20535;-53
2022/05/06 10:44:35;;;;;;;2.00;1.10;;;18.70;1.00;;;;;;5113218;27;20527;-51
2022/05/06 10:47:02;;;;;;;1.47;0.90;;;18.90;1.00;;;;;;5127402;27;20525;-52
2022/05/06 10:49:47;;;;;;;2.70;1.13;;;19.10;1.00;;;;;;5115823;27;20544;-51
2022/05/06 10:52:40;;;;;;;2.13;1.20;;;19.20;1.00;;;;;;5123984;27;20471;-52
2022/05/06 10:55:11;;;;;;;1.70;1.50;;;18.80;1.00;;;;;;5117841;27;21119;-50
2022/05/06 10:57:55;;;;;;;1.70;1.13;;;18.70;1.00;;;;;;5122913;27;20481;-50
2022/05/06 11:00:23;;;;;;;2.80;1.00;;;18.80;1.00;;;;;;5125029;27;20544;-52
2022/05/06 11:02:51;;;;;;;2.50;2.07;;;19.00;1.00;;;;;;5121146;27;20513;-49
2022/05/06 11:05:20;;;;;;;2.10;1.13;;;19.00;1.00;;;;;;5125846;28;20491;-49
2022/05/06 11:07:58;;;;;;;2.30;1.03;;;19.20;1.00;;;;;;5116324;28;20440;-51
2022/05/06 11:10:29;;;;;;;1.30;1.00;;;19.40;1.00;;;;;;5133875;28;20463;-51
2022/05/06 11:12:58;;;;;;;2.83;0.97;;;19.50;1.00;;;;;;5134055;28;20447;-51
2022/05/06 11:15:28;;;;;;;9.93;6.53;;;19.30;1.00;;;;;;5133535;28;20470;-51
2022/05/06 11:18:00;;;;;;;27.17;16.33;;;19.50;1.00;;;;;;5133353;28;21025;-54
2022/05/06 11:20:29;;;;;;;3.00;1.50;;;19.80;1.00;;;;;;5129790;28;20455;-51
2022/05/06 11:23:00;;;;;;;1.10;1.00;;;20.10;1.00;;;;;;5120962;28;20527;-52
2022/05/06 11:25:32;;;;;;;1.50;0.93;;;20.30;1.00;;;;;;5132495;28;20467;-50
2022/05/06 11:28:03;;;;;;;2.37;0.80;;;20.60;1.00;;;;;;5132842;28;20444;-52
2022/05/06 11:30:31;;;;;;;1.20;0.90;;;20.80;1.00;;;;;;5132297;28;20550;-54
2022/05/06 11:32:59;;;;;;;2.10;0.93;;;20.80;1.00;;;;;;5129879;28;20451;-53
2022/05/06 11:35:33;;;;;;;1.47;0.80;;;20.60;1.00;;;;;;5129038;28;20467;-53
2022/05/06 11:38:01;;;;;;;1.40;1.00;;;20.60;1.00;;;;;;5126569;28;21123;-54
2022/05/06 11:40:36;;;;;;;2.20;0.90;;;20.70;1.00;;;;;;5128576;28;20470;-53
2022/05/06 11:43:06;;;;;;;1.47;1.00;;;20.90;1.00;;;;;;5129207;28;21479;-50
2022/05/06 11:48:20;;;;;;;1.10;0.83;;;21.20;1.00;;;;;;5121360;28;20504;-50
2022/05/06 11:50:51;;;;;;;1.57;0.80;;;21.30;1.00;;;;;;5123497;28;20956;-50
2022/05/06 11:53:19;;;;;;;1.53;0.90;;;21.30;1.00;;;;;;5126867;28;20543;-51
2022/05/06 11:55:47;;;;;;;2.00;0.80;;;21.30;1.00;;;;;;5117824;28;20491;-52
2022/05/06 11:59:01;;;;;;;3.97;1.00;;;21.10;1.00;;;;;;5128734;27;20443;-48
2022/05/06 12:01:28;;;;;;;1.10;1.00;;;20.60;1.00;;;;;;5117868;28;20451;-49
2022/05/06 12:03:59;;;;;;;1.23;0.90;;;20.10;1.00;;;;;;5122721;27;20911;-51
2022/05/06 12:06:27;;;;;;;3.13;0.80;;;19.80;1.00;;;;;;5124273;27;20477;-48
2022/05/06 12:09:08;;;;;;;1.20;0.83;;;19.70;1.00;;;;;;5120764;27;20456;-51
2022/05/06 12:11:36;;;;;;;1.83;0.87;;;20.00;1.00;;;;;;5128208;27;20479;-52
2022/05/06 12:14:06;;;;;;;1.00;0.80;;;20.10;1.00;;;;;;5127336;27;20494;-46
2022/05/06 12:16:33;;;;;;;1.90;0.83;;;20.10;1.00;;;;;;5134574;27;21105;-52
2022/05/06 12:19:00;;;;;;;2.00;1.17;;;20.20;1.00;;;;;;5132291;27;20451;-51
2022/05/06 12:21:28;;;;;;;1.40;1.00;;;20.20;1.00;;;;;;5135236;27;20467;-53
2022/05/06 12:23:58;;;;;;;1.30;1.07;;;20.20;1.00;;;;;;5124884;27;20481;-53
2022/05/06 12:26:29;;;;;;;1.50;0.77;;;20.20;1.00;;;;;;5132219;27;20484;-49
2022/05/06 12:28:58;;;;;;;3.13;1.10;;;20.10;1.00;;;;;;5134214;27;20906;-50
2022/05/06 12:31:32;;;;;;;1.50;0.90;;;20.20;1.00;;;;;;5135812;27;20483;-52
2022/05/06 12:34:09;;;;;;;1.10;1.00;;;20.30;1.00;;;;;;5135263;27;20441;-54
2022/05/06 12:36:36;;;;;;;5.17;2.80;;;20.10;1.00;;;;;;5133377;27;20456;-53
2022/05/06 12:39:20;;;;;;;1.50;1.07;;;20.20;1.00;;;;;;5130482;27;20456;-53
2022/05/06 12:41:47;;;;;;;3.23;1.00;;;20.50;1.00;;;;;;5128870;27;20455;-51
2022/05/06 12:44:18;;;;;;;3.33;0.90;;;20.50;1.00;;;;;;5131827;27;20756;-51
2022/05/06 12:46:45;;;;;;;2.60;1.33;;;20.50;1.00;;;;;;5122576;27;20455;-51
2022/05/06 12:51:58;;;;;;;1.00;0.80;;;20.10;1.00;;;;;;5120104;27;20616;-51
2022/05/06 12:54:25;;;;;;;1.20;0.90;;;19.90;1.00;;;;;;5132010;27;20487;-50
2022/05/06 12:56:53;;;;;;;9.40;8.03;;;19.90;1.00;;;;;;5130687;27;20487;-50
2022/05/06 12:59:21;;;;;;;10.57;9.50;;;19.80;1.00;;;;;;5133114;27;20554;-49
2022/05/06 13:01:48;;;;;;;2.60;1.10;;;19.80;1.00;;;;;;5129200;27;20867;-52
2022/05/06 13:04:15;;;;;;;1.20;0.90;;;19.80;1.00;;;;;;5130880;27;20451;-53
2022/05/06 13:06:42;;;;;;;1.50;0.90;;;19.90;1.00;;;;;;5132794;27;20474;-49
2022/05/06 13:09:09;;;;;;;1.20;0.80;;;19.80;1.00;;;;;;5133898;27;20451;-51
2022/05/06 13:11:35;;;;;;;2.80;1.30;;;19.80;1.00;;;;;;5127421;27;20910;-52
2022/05/06 13:14:02;;;;;;;1.27;0.97;;;19.70;1.00;;;;;;5133204;27;20447;-50
2022/05/06 13:16:31;;;;;;;2.03;0.90;;;19.70;1.00;;;;;;5129779;27;20459;-50
2022/05/06 13:18:58;;;;;;;1.00;0.77;;;19.70;1.00;;;;;;5130606;27;20459;-50
2022/05/06 13:21:24;;;;;;;2.33;1.00;;;19.70;1.00;;;;;;5130546;27;20451;-49
2022/05/06 13:23:51;;;;;;;3.27;1.90;;;20.00;1.00;;;;;;5128827;27;20462;-50
2022/05/06 13:26:18;;;;;;;5.30;2.67;;;20.10;1.00;;;;;;5135102;27;20452;-50
2022/05/06 13:28:45;;;;;;;4.00;1.50;;;20.00;1.00;;;;;;5134717;27;20443;-50
2022/05/06 13:31:13;;;;;;;1.40;1.00;;;20.00;1.00;;;;;;5132771;27;20466;-47
2022/05/06 13:33:41;;;;;;;1.40;0.90;;;19.90;1.00;;;;;;5122394;27;20487;-54
2022/05/06 13:36:08;;;;;;;1.43;0.90;;;19.80;1.00;;;;;;5134263;27;20938;-53
2022/05/06 13:38:35;;;;;;;1.77;1.00;;;19.70;1.00;;;;;;5128993;27;20550;-54
2022/05/06 13:41:04;;;;;;;1.73;1.00;;;19.60;1.00;;;;;;5131165;27;20463;-56
2022/05/06 13:43:31;;;;;;;1.53;0.90;;;19.80;1.00;;;;;;5128985;27;20539;-53
2022/05/06 13:45:58;;;;;;;2.30;0.83;;;19.70;1.00;;;;;;5118427;27;20456;-52
2022/05/06 13:48:25;;;;;;;2.33;1.00;;;19.90;1.00;;;;;;5133721;27;20452;-55
2022/05/06 13:50:53;;;;;;;2.20;0.80;;;20.10;1.00;;;;;;5131377;27;20910;-55
2022/05/06 13:53:20;;;;;;;1.87;0.90;;;20.10;1.00;;;;;;5121063;27;20807;-55
2022/05/06 14:01:16;;;;;;;1.67;0.90;;;20.20;1.00;;;;;;5107086;28;20440;-50
2022/05/06 14:03:42;;;;;;;1.40;0.90;;;20.20;1.00;;;;;;5109451;28;20469;-52
2022/05/06 14:06:11;;;;;;;1.70;1.20;;;20.30;1.00;;;;;;5110117;28;20764;-52
2022/05/06 14:08:37;;;;;;;3.23;1.63;;;20.30;1.00;;;;;;5098957;28;20747;-49